Arimo, ID

5:32 AM MDT on September 17, 2014 (GMT -0600)
Qabsolute | Change Station
CLOSE
Current Station
Personal Weather Station
Location: Arimo, ID
Elevation: 4944 ft
Nearby Weather Stations

Elev 4944 ft 42.53 °N, 112.26 °W | Updated 9 minutes ago

Partly Cloudy
Partly Cloudy
57.7 °F
Feels Like 57.7 °F
N
0.0
Wind Variable Wind from NNW
Gusts 1.0 mph

Today
High -- | Low -- °F
--% Chance of Precip.
Yesterday
High -- | Low -- °F
Precip. -- in
7:10 AM 7:34 PM
Last Quarter, 37% visible
Pressure 29.81 in
Visibility 10.0 miles
Clouds Clear
Dew Point 41 °F
Humidity 54%
Rainfall 0.00 in
Snow Depth 1 in , 0 in , 0 in
UV 0.0 out of 12
Pollen 6.90 out of 12
PM2.5 Good
Flu Activity Not available.
METAR KPIH 171053Z AUTO 06005KT 10SM CLR 14/07 A2997 RMK AO2 LTG DSNT NW SLP095 T01440067

More Conditions Fewer Conditions

Pressure 29.81 in
Visibility 10.0 miles
Clouds Clear
Dew Point 41 °F
Humidity 54%
Rainfall 0.00 in
Snow Depth 1 in , 0 in , 0 in
UV 0.0 out of 12
Pollen 6.90 out of 12
PM2.5 Good
Flu Activity Not available.
METAR KPIH 171053Z AUTO 06005KT 10SM CLR 14/07 A2997 RMK AO2 LTG DSNT NW SLP095 T01440067

More Conditions Fewer Conditions

10-Day Weather Forecast

Almanac

Astronomy

Sep. 17, 2014 Rise Set
Actual Time 7:10 AM MDT 7:34 PM MDT
Civil Twilight 6:42 AM MDT 8:03 PM MDT
Nautical Twilight 6:09 AM MDT 8:36 PM MDT
Astronomical Twilight 5:35 AM MDT 9:10 PM MDT
Moon 1:08 AM MDT 3:52 PM MDT
Length of Visible Light 13h 20m
Length of Day
12h 23m
Tomorrow will be 2m 51s shorter.
Last Quarter, 37% of the Moon is Illuminated
Today
Last Quarter
Sep 24
New
Oct 1
First Quarter
Oct 8
Full
Oct 15
Last Quarter

Today's Extremes

State Highs State Lows

Community

WunderPhotos

Upload Photos

1,754,003 photos uploaded!

Nearby

Air Quality

  Air Quality AQ Index Pollutant
Yesterday Good
PM2.5
Current Good
PM2.5
Tuesday Good
PM2.5
Wednesday Good
PM2.5

Snow Depth

Station Depth Elevation
Lost-Wood Divide 0 in 7900 ft
Magic Mountain 0 in 6880 ft
Hemlock Butte 0 in 5810 ft
Bear Basin 1 in 5350 ft
Trinity Mountain 0 in 7770 ft

Earthquake Activity

City Distance Mag. Time & Date
No recent earthquake activity has been reported nearby.
Minimum magnitude displayed is 2.5.

Coastal Water Temperatures

Place Temperature
No Stations Reporting

Nearby Weather Stations